Ana Sayfa
METAR-TAF:

METAR-TAF

Havaalanları :

Comanche County-City Airport

Comanche, Teksas, Amerika Birleşik Devletleri

Enlem: 31-55N, Boylam: 098-36-01W, yükseklik: 423 m

Güncel hava durumu gözlemi

Rapor saat 02:55 UTC de 14 dakika önce yapıldı.
Rüzgar güneydan 5 kt
Sıcaklık 26°C
Nem 79%
Basınç 1012 hPa
Görüş mesafesi: 16.1 km
6000 ft yükseklikte parçalı bulutlu

METAR: KMKN 190255Z AUTO 17005KT 10SM SCT060 26/22 A2989 RMK AO2 T02560223

Saat: 22:09 (03:09 UTC)


TAF: eksik

4.000'den fazla havaalanı için hava durumu gözlemleri ve tahminleri (METAR ve TAF raporları).

Kullanılabilir istasyonlar harita üzerinde sarı ve kırmızı noktalarla gösterilir.

İstasyonun adını görmek için fareyi noktanın üzerinde gezdirin.

Sonrasında hava gözlem ve tahminlerini görmek için tıklayın.

Haritayı değiştirmek için: yaklaştırmak için siyah artı işaretli yeşil düğmeye ve uzaklaştırmak için de eksi işaretli düğmeye hızla tıklayın; bitişik haritalar için yeşil okları kullanın.


METAR-TAF: